Time;durP1;ratioP1;P1;durP2;ratioP2;P2;SDS_P1;SDS_P2;PMS_P1;PMS_P2;Temp;Humidity;BMP_temperature;BMP_pressure;BME280_temperature;BME280_humidity;BME280_pressure;Samples;Min_cycle;Max_cycle;Signal;HPM_P1;HPM_P2
2022/06/01 00:00:29;;;;;;;5.10;4.60;;;12.70;99.90;;;;;;5014771;28;20203;-79
2022/06/01 00:02:56;;;;;;;5.07;4.68;;;12.60;99.90;;;;;;5014804;28;20179;-80
2022/06/01 00:05:23;;;;;;;5.07;4.47;;;12.60;99.90;;;;;;5013688;28;20585;-79
2022/06/01 00:07:50;;;;;;;5.70;5.20;;;12.50;99.90;;;;;;5014739;28;20156;-79
2022/06/01 00:10:16;;;;;;;5.95;5.32;;;12.40;99.90;;;;;;5013528;28;20538;-80
2022/06/01 00:12:42;;;;;;;5.65;5.15;;;12.40;99.90;;;;;;5013246;28;20173;-80
2022/06/01 00:15:09;;;;;;;5.25;4.63;;;12.40;99.90;;;;;;5014633;28;20175;-80
2022/06/01 00:17:35;;;;;;;5.32;4.45;;;12.40;99.90;;;;;;5014702;28;20191;-79
2022/06/01 00:20:01;;;;;;;13.27;4.10;;;12.30;99.90;;;;;;5014484;28;20164;-80
2022/06/01 00:22:26;;;;;;;4.20;3.90;;;12.20;99.90;;;;;;5014427;28;20247;-80
2022/06/01 00:24:52;;;;;;;3.40;3.10;;;12.20;99.90;;;;;;5014435;28;20172;-80
2022/06/01 00:27:18;;;;;;;2.92;2.72;;;12.40;99.90;;;;;;5014616;28;20203;-80
2022/06/01 00:29:44;;;;;;;15.20;4.05;;;12.60;99.90;;;;;;5014347;28;20188;-79
2022/06/01 00:32:12;;;;;;;5.15;3.55;;;12.80;99.90;;;;;;5014401;28;20221;-80
2022/06/01 00:34:39;;;;;;;4.40;2.75;;;12.70;99.90;;;;;;5013790;28;20195;-80
2022/06/01 00:37:05;;;;;;;3.10;2.80;;;12.50;99.90;;;;;;5012898;28;20204;-80
2022/06/01 00:39:31;;;;;;;4.45;2.50;;;12.50;99.90;;;;;;5014058;28;20189;-79
2022/06/01 00:42:12;;;;;;;4.82;2.50;;;12.50;99.90;;;;;;5014320;28;20168;-79
2022/06/01 00:44:38;;;;;;;6.53;2.65;;;12.50;99.90;;;;;;5012936;28;20172;-79
2022/06/01 00:47:04;;;;;;;5.63;2.67;;;12.70;99.90;;;;;;5014204;28;20168;-79
2022/06/01 00:49:29;;;;;;;2.53;2.10;;;12.80;99.90;;;;;;5012615;28;20203;-79
2022/06/01 00:51:56;;;;;;;9.15;2.17;;;12.80;99.90;;;;;;5014309;28;20537;-79
2022/06/01 00:54:22;;;;;;;5.78;1.60;;;12.70;99.90;;;;;;5014053;28;20191;-79
2022/06/01 00:56:56;;;;;;;2.30;1.70;;;12.70;99.90;;;;;;5013884;28;20216;-80
2022/06/01 00:59:28;;;;;;;3.05;1.95;;;12.70;99.90;;;;;;5014116;28;20257;-80
2022/06/01 01:01:55;;;;;;;2.33;1.88;;;12.60;99.90;;;;;;5013829;28;20832;-80
2022/06/01 01:04:22;;;;;;;2.17;1.95;;;12.50;99.90;;;;;;5013813;28;20187;-80
2022/06/01 01:06:48;;;;;;;1.90;1.80;;;12.50;99.90;;;;;;5014054;28;20177;-80
2022/06/01 01:09:14;;;;;;;5.07;2.63;;;12.60;99.90;;;;;;5013998;28;20267;-80
2022/06/01 01:11:52;;;;;;;3.58;1.83;;;12.50;99.90;;;;;;5014016;28;20187;-80
2022/06/01 01:14:22;;;;;;;8.55;1.98;;;12.40;99.90;;;;;;5013870;28;20172;-80
2022/06/01 01:16:49;;;;;;;2.40;2.20;;;12.50;99.90;;;;;;5013839;28;20212;-79
2022/06/01 01:19:30;;;;;;;2.70;1.92;;;12.60;99.90;;;;;;5012165;28;20691;-79
2022/06/01 01:22:23;;;;;;;4.07;2.15;;;12.50;99.90;;;;;;5013613;28;20176;-80
2022/06/01 01:25:15;;;;;;;2.30;2.10;;;12.40;99.90;;;;;;5013615;28;20175;-79
2022/06/01 01:27:42;;;;;;;4.43;2.28;;;12.40;99.90;;;;;;5013728;28;20728;-80
2022/06/01 01:30:39;;;;;;;9.35;2.67;;;12.30;99.90;;;;;;5013754;28;20219;-79
2022/06/01 01:33:31;;;;;;;3.65;2.00;;;12.20;99.90;;;;;;5012269;28;20173;-79
2022/06/01 01:36:06;;;;;;;4.25;2.15;;;12.20;99.90;;;;;;5010790;28;20228;-79
2022/06/01 01:38:31;;;;;;;2.17;1.98;;;12.20;99.90;;;;;;5013236;28;20184;-79
2022/06/01 01:41:21;;;;;;;9.10;2.03;;;12.10;99.90;;;;;;5012195;28;20176;-80
2022/06/01 01:43:56;;;;;;;2.97;2.17;;;12.10;99.90;;;;;;5013346;28;20168;-79
2022/06/01 01:46:21;;;;;;;3.30;1.73;;;12.00;99.90;;;;;;5013611;28;20174;-79
2022/06/01 01:48:47;;;;;;;4.10;2.08;;;12.10;99.90;;;;;;5013167;28;20188;-79
2022/06/01 01:51:18;;;;;;;2.83;2.20;;;12.20;99.90;;;;;;5013382;28;20641;-79
2022/06/01 01:53:45;;;;;;;6.93;2.20;;;12.20;99.90;;;;;;5013523;28;20161;-79
2022/06/01 01:56:30;;;;;;;2.85;2.33;;;12.10;99.90;;;;;;5012984;28;20598;-79
2022/06/01 01:59:32;;;;;;;5.18;2.15;;;12.10;99.90;;;;;;5011577;28;20196;-78
2022/06/01 02:02:05;;;;;;;2.03;1.80;;;12.10;99.90;;;;;;5002791;28;20214;-79
2022/06/01 02:07:57;;;;;;;3.78;1.90;;;12.00;99.90;;;;;;5013296;28;20188;-79
2022/06/01 02:13:08;;;;;;;2.25;2.05;;;11.80;99.90;;;;;;5013512;28;20178;-79
2022/06/01 02:15:38;;;;;;;4.57;1.75;;;11.90;99.90;;;;;;5013119;28;20197;-78
2022/06/01 02:18:11;;;;;;;2.22;2.03;;;11.90;99.90;;;;;;5012791;28;20188;-78
2022/06/01 02:20:51;;;;;;;5.65;1.95;;;11.70;99.90;;;;;;5013358;28;20195;-78
2022/06/01 02:23:17;;;;;;;3.58;1.92;;;11.70;99.90;;;;;;5013116;28;20612;-79
2022/06/01 02:25:48;;;;;;;5.95;2.10;;;11.90;99.90;;;;;;5011844;28;20633;-78
2022/06/01 02:28:15;;;;;;;4.00;2.08;;;11.80;99.90;;;;;;5013371;28;20192;-78
2022/06/01 02:30:43;;;;;;;8.50;2.13;;;11.80;99.90;;;;;;5016768;28;20176;-78
2022/06/01 02:33:23;;;;;;;1.88;1.75;;;11.70;99.90;;;;;;5025094;28;20169;-78
2022/06/01 02:35:53;;;;;;;3.08;2.28;;;11.70;99.90;;;;;;5025281;28;20203;-78
2022/06/01 02:38:37;;;;;;;5.43;1.92;;;11.70;99.90;;;;;;5024631;28;20256;-78
2022/06/01 02:41:03;;;;;;;4.60;2.28;;;11.70;99.90;;;;;;5011788;28;20222;-79
2022/06/01 02:43:29;;;;;;;3.10;1.98;;;11.80;99.90;;;;;;5013401;28;20188;-78
2022/06/01 02:45:56;;;;;;;2.00;1.70;;;11.60;99.90;;;;;;5013139;28;20165;-79
2022/06/01 02:48:22;;;;;;;4.65;1.80;;;11.60;99.90;;;;;;5012298;28;20211;-79
2022/06/01 02:50:48;;;;;;;2.92;2.10;;;11.50;99.90;;;;;;5011243;28;20212;-79
2022/06/01 02:53:13;;;;;;;5.35;2.35;;;11.60;99.90;;;;;;5011598;28;20173;-79
2022/06/01 02:55:40;;;;;;;4.25;1.60;;;11.60;99.90;;;;;;5012672;28;20189;-79
2022/06/01 02:58:05;;;;;;;7.63;2.63;;;11.40;99.90;;;;;;5012061;28;20286;-78
2022/06/01 03:00:37;;;;;;;2.65;1.63;;;11.30;99.90;;;;;;5010895;28;20223;-79
2022/06/01 03:03:05;;;;;;;2.88;2.10;;;11.50;99.90;;;;;;5012436;28;20164;-78
2022/06/01 03:05:33;;;;;;;9.60;2.00;;;11.50;99.90;;;;;;5012334;28;20257;-78
2022/06/01 03:07:59;;;;;;;4.97;2.60;;;11.50;99.90;;;;;;5012790;28;20195;-79
2022/06/01 03:10:25;;;;;;;2.75;2.10;;;11.60;99.90;;;;;;5015475;28;20307;-79
2022/06/01 03:12:53;;;;;;;6.50;1.92;;;11.50;99.90;;;;;;5015999;28;20586;-79
2022/06/01 03:15:21;;;;;;;2.22;2.03;;;11.60;99.90;;;;;;5015998;28;20621;-78
2022/06/01 03:17:47;;;;;;;7.03;2.30;;;11.70;99.90;;;;;;5014642;28;20210;-79
2022/06/01 03:20:16;;;;;;;3.35;1.85;;;11.80;99.90;;;;;;5015439;28;20248;-78
2022/06/01 03:22:43;;;;;;;5.55;2.53;;;11.70;99.90;;;;;;5014117;28;20529;-79
2022/06/01 03:25:13;;;;;;;2.70;2.38;;;11.60;99.90;;;;;;5015549;28;20821;-79
2022/06/01 03:27:38;;;;;;;4.80;2.22;;;11.50;99.90;;;;;;5013921;28;20260;-79
2022/06/01 03:30:06;;;;;;;3.20;2.20;;;11.40;99.90;;;;;;5015365;28;20252;-78
2022/06/01 03:32:32;;;;;;;7.25;2.78;;;11.40;99.90;;;;;;5014241;28;20179;-78
2022/06/01 03:34:58;;;;;;;4.80;2.58;;;11.30;99.90;;;;;;5015655;28;20176;-79
2022/06/01 03:37:23;;;;;;;2.67;2.47;;;11.50;99.90;;;;;;5013874;28;20203;-78
2022/06/01 03:39:49;;;;;;;6.32;2.58;;;11.70;99.90;;;;;;5013693;28;20220;-78
2022/06/01 03:42:15;;;;;;;6.97;2.92;;;11.80;99.90;;;;;;5015481;28;20169;-79
2022/06/01 03:47:24;;;;;;;4.93;2.30;;;11.60;99.90;;;;;;5015426;28;20223;-79
2022/06/01 03:49:50;;;;;;;3.13;2.15;;;11.60;99.90;;;;;;5014941;28;20591;-79
2022/06/01 03:52:16;;;;;;;7.05;2.63;;;11.70;99.90;;;;;;5015005;28;20173;-79
2022/06/01 03:54:41;;;;;;;7.78;2.45;;;11.60;99.90;;;;;;5014207;28;20169;-80
2022/06/01 03:57:07;;;;;;;6.32;2.55;;;11.60;99.90;;;;;;5015044;28;20197;-79
2022/06/01 03:59:34;;;;;;;5.57;2.55;;;11.90;99.90;;;;;;5013223;28;20654;-80
2022/06/01 04:02:05;;;;;;;9.07;2.55;;;11.90;99.90;;;;;;5015071;28;20298;-79
2022/06/01 04:04:31;;;;;;;9.32;2.53;;;11.90;99.90;;;;;;5014779;28;20226;-79
2022/06/01 04:06:57;;;;;;;7.22;2.47;;;12.00;99.90;;;;;;5013590;28;20165;-78
2022/06/01 04:09:23;;;;;;;8.48;2.92;;;12.20;99.90;;;;;;5014598;28;20337;-79
2022/06/01 04:11:51;;;;;;;14.10;2.88;;;11.80;99.90;;;;;;5013614;28;20668;-80
2022/06/01 04:14:19;;;;;;;3.90;2.50;;;11.90;99.90;;;;;;5014927;28;20172;-80
2022/06/01 04:16:46;;;;;;;3.17;2.58;;;12.10;99.90;;;;;;5014710;28;20232;-80
2022/06/01 04:19:12;;;;;;;2.58;2.15;;;12.20;99.90;;;;;;5013285;28;20196;-80
2022/06/01 04:21:39;;;;;;;9.80;2.30;;;12.20;99.90;;;;;;5014802;28;20172;-79
2022/06/01 04:24:07;;;;;;;12.82;2.97;;;12.20;99.90;;;;;;5014705;28;20211;-80
2022/06/01 04:26:33;;;;;;;4.95;2.70;;;12.30;99.90;;;;;;5014649;28;20169;-80
2022/06/01 04:28:58;;;;;;;12.50;2.10;;;12.20;99.90;;;;;;5013073;28;20954;-80
2022/06/01 04:31:25;;;;;;;4.82;2.60;;;12.20;99.90;;;;;;5014697;28;20659;-80
2022/06/01 04:33:51;;;;;;;6.38;2.58;;;12.40;99.90;;;;;;5014417;28;20176;-80
2022/06/01 04:36:17;;;;;;;6.38;2.72;;;12.60;99.90;;;;;;5014440;28;20204;-79
2022/06/01 04:38:42;;;;;;;6.35;2.22;;;12.50;99.90;;;;;;5012806;28;20201;-79
2022/06/01 04:41:08;;;;;;;4.32;2.67;;;12.30;99.90;;;;;;5014006;28;20161;-80
2022/06/01 04:43:33;;;;;;;5.75;2.88;;;12.50;99.90;;;;;;5013977;28;20209;-80
2022/06/01 04:45:59;;;;;;;5.78;3.72;;;12.40;99.90;;;;;;5014300;28;20275;-80
2022/06/01 04:48:25;;;;;;;13.43;3.22;;;12.50;99.90;;;;;;5013803;28;20534;-80
2022/06/01 04:50:53;;;;;;;5.63;2.50;;;12.60;99.90;;;;;;5014064;28;20176;-80
2022/06/01 04:53:19;;;;;;;3.28;2.47;;;12.70;99.90;;;;;;5013978;28;20244;-80
2022/06/01 04:55:46;;;;;;;6.97;3.13;;;12.80;99.90;;;;;;5012313;28;20351;-84
2022/06/01 04:58:11;;;;;;;6.35;3.05;;;12.90;99.90;;;;;;5014149;28;20188;-80
2022/06/01 05:00:38;;;;;;;9.10;3.25;;;13.10;99.90;;;;;;5013330;28;20176;-80
2022/06/01 05:03:05;;;;;;;9.50;3.03;;;13.10;99.90;;;;;;5013326;28;20509;-78
2022/06/01 05:05:30;;;;;;;6.75;2.67;;;13.30;99.90;;;;;;5013496;28;20169;-78
2022/06/01 05:07:56;;;;;;;13.95;2.92;;;13.20;99.90;;;;;;5013444;28;20206;-78
2022/06/01 05:10:22;;;;;;;4.25;2.92;;;13.30;99.90;;;;;;5012239;28;20574;-78
2022/06/01 05:12:49;;;;;;;6.25;3.25;;;13.60;99.90;;;;;;5013387;28;20172;-79
2022/06/01 05:15:15;;;;;;;10.00;2.90;;;13.80;99.90;;;;;;5013572;28;20169;-79
2022/06/01 05:17:41;;;;;;;8.50;2.65;;;14.00;99.90;;;;;;5012074;28;20212;-79
2022/06/01 05:20:07;;;;;;;3.50;2.80;;;13.90;99.90;;;;;;5013002;28;20200;-79
2022/06/01 05:22:33;;;;;;;11.95;2.85;;;14.30;99.90;;;;;;5012736;28;20244;-79
2022/06/01 05:24:59;;;;;;;5.18;3.05;;;14.40;99.90;;;;;;5013325;28;20251;-79
2022/06/01 05:27:25;;;;;;;5.65;3.00;;;14.50;99.90;;;;;;5013005;28;20204;-79
2022/06/01 05:29:51;;;;;;;10.13;3.40;;;14.60;99.90;;;;;;5013244;28;20675;-79
2022/06/01 05:32:17;;;;;;;11.90;3.10;;;14.60;99.90;;;;;;5012528;28;20187;-80
2022/06/01 05:34:43;;;;;;;9.20;3.25;;;14.60;99.90;;;;;;5013027;28;20169;-79
2022/06/01 05:37:09;;;;;;;8.85;2.53;;;14.60;99.90;;;;;;5012850;28;20203;-79
2022/06/01 05:39:35;;;;;;;9.00;2.70;;;14.40;99.90;;;;;;5012776;28;20217;-80
2022/06/01 05:42:01;;;;;;;3.03;2.72;;;14.50;99.90;;;;;;5012702;28;20172;-79
2022/06/01 05:44:27;;;;;;;10.75;3.35;;;14.60;99.90;;;;;;5012455;28;20168;-78
2022/06/01 05:46:54;;;;;;;3.35;3.05;;;14.40;99.90;;;;;;5012290;28;20204;-79
2022/06/01 05:49:20;;;;;;;5.82;2.92;;;14.50;99.90;;;;;;5012735;28;20196;-78
2022/06/01 05:51:45;;;;;;;8.80;2.55;;;14.70;99.90;;;;;;5011134;28;20176;-79
2022/06/01 05:54:11;;;;;;;5.30;2.83;;;14.60;99.90;;;;;;5012762;28;20248;-81
2022/06/01 05:56:36;;;;;;;7.18;3.40;;;14.70;99.90;;;;;;5012537;28;20540;-79
2022/06/01 05:59:02;;;;;;;10.45;3.58;;;14.90;99.90;;;;;;5012438;28;20271;-78
2022/06/01 06:01:29;;;;;;;4.60;3.42;;;14.60;99.90;;;;;;5012950;28;20177;-79
2022/06/01 06:03:54;;;;;;;7.82;2.80;;;14.40;99.90;;;;;;5013248;28;20238;-80
2022/06/01 06:06:22;;;;;;;10.38;3.00;;;14.50;99.90;;;;;;5012603;28;20467;-79
2022/06/01 06:09:00;;;;;;;7.82;3.08;;;14.60;99.90;;;;;;5012403;28;20524;-79
2022/06/01 06:11:28;;;;;;;10.90;3.03;;;14.70;99.90;;;;;;5010705;28;20206;-79
2022/06/01 06:13:55;;;;;;;5.90;2.55;;;14.80;99.90;;;;;;5012161;28;20165;-80
2022/06/01 06:16:21;;;;;;;7.32;3.47;;;14.70;99.90;;;;;;5011967;28;20208;-82
2022/06/01 06:18:47;;;;;;;12.88;3.63;;;14.80;99.90;;;;;;5012569;28;20589;-82
2022/06/01 06:21:13;;;;;;;41.90;5.80;;;14.80;99.90;;;;;;5011280;28;20198;-84
2022/06/01 06:23:39;;;;;;;13.05;3.55;;;14.70;99.90;;;;;;5011917;28;20180;-82
2022/06/01 06:26:06;;;;;;;23.38;4.85;;;14.50;99.90;;;;;;5010442;28;20176;-80
2022/06/01 06:28:32;;;;;;;15.65;3.53;;;14.60;99.90;;;;;;5011842;28;20192;-80
2022/06/01 06:30:58;;;;;;;10.70;4.53;;;14.60;99.90;;;;;;5011141;28;20184;-80
2022/06/01 06:33:24;;;;;;;10.43;4.78;;;14.70;99.90;;;;;;5012164;28;20164;-81
2022/06/01 06:35:57;;;;;;;12.18;3.60;;;14.60;99.90;;;;;;5011839;28;20207;-79
2022/06/01 06:38:26;;;;;;;20.75;3.90;;;14.70;99.90;;;;;;5011980;28;20247;-79
2022/06/01 06:40:54;;;;;;;21.38;4.28;;;14.70;99.90;;;;;;5011631;28;20522;-80
2022/06/01 06:43:21;;;;;;;9.68;3.60;;;14.90;99.90;;;;;;5013122;28;20884;-79
2022/06/01 06:45:58;;;;;;;11.02;3.50;;;14.90;99.90;;;;;;5016090;28;20222;-80
2022/06/01 06:48:24;;;;;;;13.45;3.35;;;15.00;99.90;;;;;;5015293;28;20665;-79
2022/06/01 06:50:51;;;;;;;8.50;3.47;;;15.30;99.90;;;;;;5015282;28;20254;-80
2022/06/01 06:53:17;;;;;;;3.88;3.22;;;15.50;99.90;;;;;;5016443;28;20168;-83
2022/06/01 06:55:43;;;;;;;8.98;3.75;;;16.00;99.90;;;;;;5016227;28;20629;-80
2022/06/01 06:58:10;;;;;;;12.13;4.03;;;16.40;99.90;;;;;;5021645;28;20234;-80
2022/06/01 07:00:36;;;;;;;3.53;2.90;;;17.30;99.90;;;;;;5027662;28;20195;-80
2022/06/01 07:03:03;;;;;;;8.77;3.13;;;18.20;99.90;;;;;;5022530;28;20180;-83
2022/06/01 07:08:12;;;;;;;4.95;2.67;;;19.70;99.90;;;;;;5016781;28;20210;-81
2022/06/01 07:10:38;;;;;;;4.53;2.35;;;20.60;99.90;;;;;;5014650;28;20177;-81
2022/06/01 07:13:04;;;;;;;3.40;2.53;;;21.50;99.90;;;;;;5015577;28;20172;-81
2022/06/01 07:15:29;;;;;;;32.00;3.80;;;21.90;99.90;;;;;;5014042;28;20175;-83
2022/06/01 07:17:55;;;;;;;10.13;2.75;;;22.20;99.90;;;;;;5015563;28;20691;-84
2022/06/01 07:20:21;;;;;;;27.67;4.15;;;22.60;99.90;;;;;;5016291;28;20173;-85
2022/06/01 07:22:47;;;;;;;9.07;2.03;;;22.70;99.90;;;;;;5015073;28;20177;-85
2022/06/01 07:25:13;;;;;;;29.38;3.22;;;22.30;99.90;;;;;;5014510;28;20251;-85
2022/06/01 07:27:39;;;;;;;6.38;2.78;;;22.20;99.90;;;;;;5014255;28;20172;-81
2022/06/01 07:30:06;;;;;;;7.18;3.20;;;22.70;99.90;;;;;;5013797;28;20172;-86
2022/06/01 07:32:32;;;;;;;14.90;2.80;;;22.20;99.90;;;;;;5014104;28;20528;-83
2022/06/01 07:34:57;;;;;;;7.80;2.30;;;22.70;99.90;;;;;;5013947;28;20169;-83
2022/06/01 07:43:07;;;;;;;6.95;3.30;;;23.10;99.90;;;;;;5017091;28;20218;-83
2022/06/01 07:45:39;;;;;;;14.45;2.10;;;23.40;99.90;;;;;;5014238;28;20172;-83
2022/06/01 07:48:06;;;;;;;5.72;2.45;;;22.70;99.90;;;;;;5013942;28;20279;-79
2022/06/01 07:50:33;;;;;;;7.03;2.28;;;21.90;99.90;;;;;;5015527;28;20168;-85
2022/06/01 07:53:00;;;;;;;6.93;2.10;;;21.20;99.90;;;;;;5014570;28;20548;-79
2022/06/01 07:55:25;;;;;;;8.05;2.58;;;20.50;99.90;;;;;;5014446;28;20164;-79
2022/06/01 07:57:51;;;;;;;4.32;1.90;;;20.10;99.90;;;;;;5015356;28;20802;-80
2022/06/01 08:00:17;;;;;;;8.20;2.30;;;19.30;99.90;;;;;;5014973;28;20310;-86
2022/06/01 08:02:43;;;;;;;2.35;1.90;;;19.10;99.90;;;;;;5013446;28;20176;-79
2022/06/01 08:05:10;;;;;;;6.07;2.40;;;18.80;99.90;;;;;;5013721;28;20157;-79
2022/06/01 08:07:36;;;;;;;4.10;2.13;;;19.00;99.90;;;;;;5015201;28;20227;-83
2022/06/01 08:10:03;;;;;;;4.93;2.47;;;19.00;99.90;;;;;;5015007;28;20629;-79
2022/06/01 08:15:13;;;;;;;7.00;3.20;;;18.80;99.90;;;;;;5015231;28;20556;-79
2022/06/01 08:17:40;;;;;;;4.85;2.72;;;18.80;99.90;;;;;;5014941;28;20201;-79
2022/06/01 08:20:06;;;;;;;3.17;2.50;;;18.80;99.90;;;;;;5013795;28;20219;-81
2022/06/01 08:22:31;;;;;;;7.57;2.92;;;19.10;99.90;;;;;;5014539;28;20254;-86
2022/06/01 08:24:57;;;;;;;7.20;3.08;;;19.50;99.90;;;;;;5016228;28;20169;-82
2022/06/01 08:27:23;;;;;;;4.95;2.28;;;19.60;99.90;;;;;;5014890;28;20172;-79
2022/06/01 08:29:48;;;;;;;5.82;3.03;;;19.30;99.90;;;;;;5013097;28;20739;-80
2022/06/01 08:32:14;;;;;;;8.35;2.67;;;19.90;99.90;;;;;;5013751;28;20161;-80
2022/06/01 08:34:40;;;;;;;6.45;3.05;;;20.00;99.90;;;;;;5014427;28;20184;-80
2022/06/01 08:37:06;;;;;;;4.60;2.33;;;19.90;99.90;;;;;;5012781;28;20200;-79
2022/06/01 08:39:32;;;;;;;5.30;2.72;;;19.90;99.90;;;;;;5014713;28;20189;-79
2022/06/01 08:42:00;;;;;;;5.28;2.72;;;20.20;99.90;;;;;;5014424;28;20256;-81
2022/06/01 08:44:25;;;;;;;2.47;2.05;;;20.00;99.90;;;;;;5014752;28;20161;-79
2022/06/01 08:46:55;;;;;;;5.05;2.10;;;20.30;99.90;;;;;;5014597;28;20260;-80
2022/06/01 08:49:28;;;;;;;5.32;1.70;;;20.00;99.90;;;;;;5014319;28;20271;-85
2022/06/01 08:51:54;;;;;;;10.48;2.42;;;19.60;99.90;;;;;;5013951;28;20736;-86
2022/06/01 08:54:21;;;;;;;2.13;1.75;;;19.50;99.90;;;;;;5014686;28;20167;-80
2022/06/01 08:56:50;;;;;;;4.82;1.85;;;19.50;99.90;;;;;;5013511;28;20208;-81
2022/06/01 08:59:21;;;;;;;6.07;2.55;;;19.50;99.90;;;;;;5015411;28;20188;-85
2022/06/01 09:02:34;;;;;;;5.43;2.03;;;19.50;99.90;;;;;;5013253;28;20180;-79
2022/06/01 09:05:06;;;;;;;3.78;1.60;;;19.50;99.90;;;;;;4995149;28;20183;-83
2022/06/01 09:07:45;;;;;;;7.63;2.40;;;19.60;99.90;;;;;;5013507;28;20263;-83
2022/06/01 09:10:35;;;;;;;8.35;2.30;;;19.30;99.90;;;;;;5014085;28;20195;-81
2022/06/01 09:13:09;;;;;;;3.97;1.98;;;19.30;99.90;;;;;;5014062;28;20188;-84
2022/06/01 09:15:50;;;;;;;2.08;1.88;;;19.50;99.90;;;;;;5013986;28;20218;-84
2022/06/01 09:18:20;;;;;;;3.65;1.65;;;19.80;99.90;;;;;;5013640;28;20388;-81
2022/06/01 09:23:30;;;;;;;4.50;1.60;;;20.30;99.90;;;;;;5013310;28;20175;-83
2022/06/01 09:25:57;;;;;;;2.95;1.75;;;20.80;99.90;;;;;;5013727;28;20164;-80
2022/06/01 09:28:29;;;;;;;11.98;1.90;;;20.80;99.90;;;;;;5013416;28;20296;-81
2022/06/01 09:31:02;;;;;;;7.35;1.42;;;20.50;99.90;;;;;;5012871;28;20537;-81
2022/06/01 09:33:33;;;;;;;8.25;2.60;;;20.50;99.90;;;;;;5013096;28;20169;-84
2022/06/01 09:36:07;;;;;;;6.95;2.30;;;20.30;99.90;;;;;;5013602;28;20615;-85
2022/06/01 09:38:48;;;;;;;1.90;1.80;;;20.30;99.90;;;;;;5013158;28;20200;-82
2022/06/01 09:41:26;;;;;;;4.53;2.13;;;20.40;99.90;;;;;;5013382;28;20169;-85
2022/06/01 09:44:00;;;;;;;3.95;2.28;;;20.30;99.90;;;;;;5013886;28;20633;-84
2022/06/01 09:46:33;;;;;;;2.50;1.77;;;20.40;99.90;;;;;;5012899;28;20169;-82
2022/06/01 09:49:19;;;;;;;9.63;2.30;;;20.60;99.90;;;;;;5012643;28;20231;-83
2022/06/01 09:51:47;;;;;;;3.97;2.10;;;20.70;99.90;;;;;;5012529;28;20173;-83
2022/06/01 09:54:22;;;;;;;2.30;2.00;;;20.70;99.90;;;;;;5013423;28;20250;-82
2022/06/01 09:56:48;;;;;;;2.30;2.10;;;20.60;99.90;;;;;;5012510;28;20210;-81
2022/06/01 10:08:22;;;;;;;7.60;1.90;;;21.40;99.90;;;;;;5013096;28;20211;-82
2022/06/01 10:11:06;;;;;;;6.40;3.25;;;21.30;99.90;;;;;;5014001;28;20184;-80
2022/06/01 10:13:34;;;;;;;9.25;2.60;;;21.00;99.90;;;;;;5010676;28;20172;-82
2022/06/01 10:16:35;;;;;;;3.45;2.28;;;20.80;99.90;;;;;;5011375;28;20295;-81
2022/06/01 10:19:03;;;;;;;2.30;2.03;;;20.40;99.90;;;;;;5011045;28;20202;-83
2022/06/01 10:21:44;;;;;;;2.30;2.10;;;20.00;99.90;;;;;;5010673;28;20175;-81
2022/06/01 10:24:16;;;;;;;2.15;1.98;;;19.70;99.90;;;;;;5011021;28;20172;-85
2022/06/01 10:26:58;;;;;;;5.72;2.72;;;19.30;99.90;;;;;;5010969;28;20525;-84
2022/06/01 10:29:40;;;;;;;6.03;3.55;;;19.00;99.90;;;;;;5011142;28;20188;-81
2022/06/01 10:32:32;;;;;;;5.20;2.90;;;18.80;99.90;;;;;;5011071;28;20165;-80
2022/06/01 10:35:14;;;;;;;3.25;2.35;;;18.20;99.90;;;;;;5010580;28;20207;-82
2022/06/01 10:38:21;;;;;;;5.93;2.58;;;18.00;99.90;;;;;;5012284;28;20745;-80
2022/06/01 10:40:58;;;;;;;7.10;2.25;;;18.00;99.90;;;;;;4993679;28;20180;-80
2022/06/01 10:43:45;;;;;;;15.20;2.90;;;18.40;99.90;;;;;;5011834;28;20168;-79
2022/06/01 10:46:18;;;;;;;11.10;9.23;;;18.90;99.90;;;;;;5011366;28;20227;-79
2022/06/01 10:48:59;;;;;;;3.47;3.17;;;19.00;99.90;;;;;;5011385;28;20196;-80
2022/06/01 10:51:31;;;;;;;3.90;3.15;;;19.00;99.90;;;;;;5012007;28;20175;-80
2022/06/01 10:54:25;;;;;;;5.15;3.08;;;19.00;99.90;;;;;;5011953;28;20200;-80
2022/06/01 10:56:51;;;;;;;18.23;4.82;;;19.10;99.90;;;;;;5011898;28;20299;-80
2022/06/01 10:59:17;;;;;;;4.00;3.10;;;18.90;99.90;;;;;;5011190;28;20275;-80
2022/06/01 11:02:13;;;;;;;7.38;4.78;;;18.70;99.90;;;;;;5012805;28;20227;-82
2022/06/01 11:04:47;;;;;;;4.38;2.58;;;18.70;99.90;;;;;;5012893;28;20635;-80
2022/06/01 11:07:28;;;;;;;3.20;2.47;;;19.00;99.90;;;;;;5011167;28;20172;-81
2022/06/01 11:10:27;;;;;;;3.75;2.22;;;19.10;99.90;;;;;;5023564;28;20233;-79
2022/06/01 11:13:05;;;;;;;5.40;2.97;;;19.30;99.90;;;;;;5023352;28;20188;-80
2022/06/01 11:15:40;;;;;;;4.90;2.55;;;19.60;99.90;;;;;;5023625;28;20176;-80
2022/06/01 11:18:27;;;;;;;8.10;5.72;;;20.00;99.90;;;;;;5011707;28;20204;-81
2022/06/01 11:21:04;;;;;;;7.70;2.00;;;20.30;99.90;;;;;;5011701;28;20242;-81
2022/06/01 11:23:59;;;;;;;3.60;3.33;;;20.40;99.90;;;;;;5011828;28;20176;-84
2022/06/01 11:27:05;;;;;;;3.92;3.42;;;20.30;99.90;;;;;;5011759;28;20247;-81
2022/06/01 11:29:48;;;;;;;1.95;1.60;;;20.30;99.90;;;;;;5013299;28;20192;-82
2022/06/01 11:32:21;;;;;;;4.55;1.10;;;20.10;99.90;;;;;;5015635;28;20188;-80
2022/06/01 11:34:56;;;;;;;1.90;1.10;;;20.10;99.90;;;;;;5015221;28;20192;-80
2022/06/01 11:37:35;;;;;;;4.10;1.45;;;20.10;99.90;;;;;;5014688;28;20313;-81
2022/06/01 11:40:12;;;;;;;36.22;3.13;;;19.90;99.90;;;;;;5015774;28;20168;-81
2022/06/01 11:42:42;;;;;;;28.60;2.60;;;19.90;99.90;;;;;;5015950;28;20691;-83
2022/06/01 11:45:13;;;;;;;6.53;1.67;;;19.90;99.90;;;;;;5015697;28;20175;-84
2022/06/01 11:48:00;;;;;;;2.97;1.67;;;20.30;99.90;;;;;;5015306;28;20160;-87
2022/06/01 11:50:53;;;;;;;5.78;1.48;;;20.80;99.90;;;;;;5015405;28;20164;-90
2022/06/01 11:53:42;;;;;;;7.18;1.98;;;21.10;99.90;;;;;;5014614;28;20180;-89
2022/06/01 11:56:25;;;;;;;7.03;2.28;;;21.30;99.90;;;;;;5006805;28;20212;-81
2022/06/01 11:59:15;;;;;;;34.30;3.42;;;20.90;99.90;;;;;;5013400;28;20193;-80
2022/06/01 12:01:56;;;;;;;3.92;2.10;;;20.70;99.90;;;;;;5014451;28;20259;-79
2022/06/01 12:04:36;;;;;;;9.75;2.30;;;19.90;99.90;;;;;;5012909;28;20263;-80
2022/06/01 12:07:08;;;;;;;3.20;2.38;;;19.90;99.90;;;;;;5014829;28;20172;-83
2022/06/01 12:09:41;;;;;;;21.42;2.30;;;20.10;99.90;;;;;;5013401;28;20623;-81
2022/06/01 12:12:21;;;;;;;28.02;3.83;;;20.10;99.90;;;;;;5014531;28;20590;-84
2022/06/01 12:15:32;;;;;;;3.85;2.15;;;20.00;99.90;;;;;;5014552;28;20196;-83
2022/06/01 12:18:11;;;;;;;4.93;1.88;;;20.10;99.90;;;;;;4939267;29;21097;-82
2022/06/01 12:20:37;;;;;;;2.30;2.10;;;20.40;99.90;;;;;;5011807;28;20712;-82
2022/06/01 12:29:04;;;;;;;4.97;2.97;;;19.90;99.90;;;;;;5016978;28;20246;-81
2022/06/01 12:31:39;;;;;;;8.27;2.88;;;20.30;99.90;;;;;;5014488;28;20260;-85
2022/06/01 12:34:18;;;;;;;7.97;2.47;;;20.30;99.90;;;;;;5012221;28;20227;-82
2022/06/01 12:37:02;;;;;;;4.43;2.42;;;20.20;99.90;;;;;;5013529;28;20204;-82
2022/06/01 12:39:39;;;;;;;2.90;2.65;;;20.00;99.90;;;;;;5013266;28;20198;-82
2022/06/01 12:42:13;;;;;;;6.05;3.13;;;19.70;99.90;;;;;;5012719;28;20191;-80
2022/06/01 12:44:41;;;;;;;12.95;3.60;;;19.80;99.90;;;;;;5014176;28;20192;-81
2022/06/01 12:47:07;;;;;;;13.40;1.98;;;20.00;99.90;;;;;;5014141;28;20215;-82
2022/06/01 12:49:35;;;;;;;2.97;1.80;;;20.30;99.90;;;;;;5013770;28;20195;-80
2022/06/01 12:52:07;;;;;;;1.90;1.80;;;20.30;99.90;;;;;;5013804;28;20184;-80
2022/06/01 12:54:51;;;;;;;2.05;1.67;;;20.40;99.90;;;;;;5012366;28;20173;-80
2022/06/01 12:57:49;;;;;;;1.70;1.60;;;20.60;99.90;;;;;;5013312;28;20211;-79
2022/06/01 13:00:19;;;;;;;1.88;1.75;;;20.50;99.90;;;;;;5001741;28;20184;-81
2022/06/01 13:02:46;;;;;;;1.60;1.50;;;20.40;99.90;;;;;;5012966;28;20165;-81
2022/06/01 13:05:19;;;;;;;2.65;2.05;;;20.30;99.90;;;;;;5013715;28;20202;-79
2022/06/01 13:07:50;;;;;;;1.50;1.40;;;20.10;99.90;;;;;;5013514;28;20192;-86
2022/06/01 13:10:22;;;;;;;1.88;1.77;;;20.30;99.90;;;;;;5015099;28;20271;-86
2022/06/01 13:12:48;;;;;;;2.53;1.65;;;19.80;99.90;;;;;;5014224;28;20263;-81
2022/06/01 13:15:23;;;;;;;5.57;1.60;;;19.60;99.90;;;;;;5014603;28;20208;-81
2022/06/01 13:17:52;;;;;;;5.13;2.65;;;19.70;99.90;;;;;;5011684;28;20214;-80
2022/06/01 13:20:23;;;;;;;18.88;6.00;;;19.70;99.90;;;;;;5013190;28;20168;-80
2022/06/01 13:22:51;;;;;;;3.30;2.10;;;19.80;99.90;;;;;;5013698;28;20192;-81
2022/06/01 13:25:28;;;;;;;25.25;5.57;;;19.60;99.90;;;;;;5012004;28;20171;-84
2022/06/01 13:27:54;;;;;;;14.15;4.93;;;19.80;99.90;;;;;;5013296;28;20195;-83
2022/06/01 13:30:20;;;;;;;10.25;3.67;;;19.60;99.90;;;;;;5013248;28;20168;-80
2022/06/01 13:32:50;;;;;;;4.40;2.20;;;19.60;99.90;;;;;;5013169;28;20196;-80
2022/06/01 13:35:31;;;;;;;3.00;1.98;;;19.50;99.90;;;;;;5011999;28;20668;-80
2022/06/01 13:37:58;;;;;;;2.60;1.52;;;19.80;99.90;;;;;;5013494;28;20220;-88
2022/06/01 13:40:27;;;;;;;1.92;1.80;;;19.80;99.90;;;;;;5013251;28;20205;-81
2022/06/01 13:43:11;;;;;;;1.92;1.67;;;19.90;99.90;;;;;;5013109;28;20212;-80